createdAt,value
2023-04-10T00:01:11.883Z,5.89
2023-04-10T00:03:38.912Z,6.13
2023-04-10T00:06:06.501Z,5.96
2023-04-10T00:08:33.437Z,5.91
2023-04-10T00:11:00.686Z,5.92
2023-04-10T00:13:27.641Z,5.94
2023-04-10T00:15:54.701Z,5.71
2023-04-10T00:18:21.472Z,5.77
2023-04-10T00:20:48.780Z,5.85
2023-04-10T00:23:15.866Z,5.68
2023-04-10T00:25:42.880Z,5.67
2023-04-10T00:28:09.674Z,5.57
2023-04-10T00:30:37.161Z,5.42
2023-04-10T00:33:04.108Z,5.52
2023-04-10T00:35:31.115Z,5.51
2023-04-10T00:37:58.256Z,5.53
2023-04-10T00:40:25.400Z,5.69
2023-04-10T00:42:52.389Z,5.30
2023-04-10T00:45:19.350Z,5.33
2023-04-10T00:47:46.567Z,5.25
2023-04-10T00:50:13.948Z,5.24
2023-04-10T00:52:40.894Z,5.14
2023-04-10T00:55:08.397Z,4.94
2023-04-10T00:57:35.641Z,4.95
2023-04-10T01:00:03.150Z,5.03
2023-04-10T01:02:30.319Z,4.99
2023-04-10T01:04:57.576Z,4.96
2023-04-10T01:07:44.368Z,5.08
2023-04-10T01:10:52.916Z,5.05
2023-04-10T01:13:28.551Z,4.95
2023-04-10T01:16:06.372Z,4.92
2023-04-10T01:18:47.301Z,4.91
2023-04-10T01:21:15.338Z,4.91
2023-04-10T01:24:17.261Z,4.92
2023-04-10T01:27:16.486Z,4.77
2023-04-10T01:29:50.503Z,4.70
2023-04-10T01:32:21.868Z,4.72
2023-04-10T01:34:51.380Z,4.69
2023-04-10T01:37:22.678Z,4.73
2023-04-10T01:39:59.758Z,4.74
2023-04-10T01:42:29.063Z,4.52
2023-04-10T01:44:56.763Z,4.55
2023-04-10T01:47:24.751Z,4.70
2023-04-10T01:49:51.973Z,4.67
2023-04-10T01:52:19.613Z,4.66
2023-04-10T01:54:49.006Z,4.63
2023-04-10T01:57:19.756Z,4.85
2023-04-10T01:59:46.535Z,4.72
2023-04-10T02:02:13.656Z,4.79
2023-04-10T02:04:40.837Z,4.80
2023-04-10T02:07:11.481Z,4.59
2023-04-10T02:10:00.726Z,4.52
2023-04-10T02:12:35.267Z,4.44
2023-04-10T02:15:03.381Z,4.53
2023-04-10T02:17:31.533Z,4.52
2023-04-10T02:19:59.375Z,4.45
2023-04-10T02:22:27.647Z,4.15
2023-04-10T02:24:55.263Z,4.17
2023-04-10T02:27:31.770Z,4.16
2023-04-10T02:29:58.988Z,4.29
2023-04-10T02:32:26.076Z,4.23
2023-04-10T02:34:52.940Z,4.20
2023-04-10T02:37:19.667Z,4.34
2023-04-10T02:39:46.717Z,4.25
2023-04-10T02:42:13.528Z,4.25
2023-04-10T02:44:40.256Z,4.17
2023-04-10T02:47:07.564Z,4.22
2023-04-10T02:49:37.917Z,4.07
2023-04-10T02:52:04.801Z,4.06
2023-04-10T02:54:32.093Z,4.00
2023-04-10T02:56:58.861Z,4.11
2023-04-10T02:59:25.966Z,4.00
2023-04-10T03:01:52.772Z,3.94
2023-04-10T03:04:20.127Z,3.93
2023-04-10T03:06:46.880Z,4.11
2023-04-10T03:09:13.608Z,4.00
2023-04-10T03:11:40.726Z,3.82
2023-04-10T03:14:09.944Z,3.85
2023-04-10T03:16:37.010Z,3.78
2023-04-10T03:19:04.972Z,3.68
2023-04-10T03:21:32.228Z,3.56
2023-04-10T03:23:58.936Z,3.65
2023-04-10T03:26:25.763Z,3.61
2023-04-10T03:28:52.567Z,3.62
2023-04-10T03:31:19.765Z,3.54
2023-04-10T03:33:46.817Z,3.59
2023-04-10T03:36:13.639Z,3.53
2023-04-10T03:38:40.818Z,3.62
2023-04-10T03:41:07.950Z,3.55
2023-04-10T03:43:35.082Z,3.53
2023-04-10T03:46:02.144Z,3.42
2023-04-10T03:48:30.831Z,3.27
2023-04-10T03:50:57.747Z,3.38
2023-04-10T03:53:24.770Z,3.21
2023-04-10T03:55:52.873Z,3.47
2023-04-10T03:58:19.626Z,3.30
2023-04-10T04:00:46.874Z,3.38
2023-04-10T04:03:14.141Z,3.26
2023-04-10T04:05:41.023Z,3.44
2023-04-10T04:08:09.950Z,3.43
2023-04-10T04:10:37.064Z,3.41
2023-04-10T04:13:03.837Z,3.19
2023-04-10T04:15:30.543Z,3.23
2023-04-10T04:17:58.437Z,3.33
2023-04-10T04:20:25.164Z,3.26
2023-04-10T04:22:52.394Z,3.07
2023-04-10T04:25:20.595Z,3.09
2023-04-10T04:27:47.585Z,3.12
2023-04-10T04:30:14.361Z,2.99
2023-04-10T04:32:41.373Z,3.00
2023-04-10T04:35:09.106Z,2.82
2023-04-10T04:37:36.020Z,3.03
2023-04-10T04:40:03.575Z,2.89
2023-04-10T04:42:30.264Z,3.04
2023-04-10T04:44:57.035Z,2.93
2023-04-10T04:47:24.889Z,2.84
2023-04-10T04:49:51.936Z,2.91
2023-04-10T04:52:18.943Z,2.99
2023-04-10T04:54:45.834Z,3.09
2023-04-10T04:57:12.757Z,2.87
2023-04-10T04:59:44.080Z,3.03
2023-04-10T05:02:11.215Z,3.16
2023-04-10T05:04:38.142Z,3.11
2023-04-10T05:07:05.778Z,3.18
2023-04-10T05:09:33.057Z,3.21
2023-04-10T05:12:00.561Z,3.36
2023-04-10T05:14:27.322Z,3.38
2023-04-10T05:16:54.143Z,3.23
2023-04-10T05:19:21.464Z,3.27
2023-04-10T05:21:48.190Z,3.35
2023-04-10T05:24:15.288Z,3.39
2023-04-10T05:26:42.879Z,3.44
2023-04-10T05:29:10.290Z,3.45
2023-04-10T05:31:37.193Z,3.42
2023-04-10T05:34:04.349Z,3.46
2023-04-10T05:36:32.444Z,3.60
2023-04-10T05:38:59.350Z,3.59
2023-04-10T05:41:26.366Z,3.78
2023-04-10T05:43:53.480Z,3.87
2023-04-10T05:46:20.257Z,3.84
2023-04-10T05:48:46.993Z,3.97
2023-04-10T05:51:14.319Z,4.05
2023-04-10T05:53:41.257Z,4.11
2023-04-10T05:56:08.713Z,4.25
2023-04-10T05:58:35.625Z,4.32
2023-04-10T06:01:02.385Z,4.40
2023-04-10T06:03:31.314Z,4.48
2023-04-10T06:05:58.678Z,4.55
2023-04-10T06:08:25.957Z,4.69
2023-04-10T06:10:53.166Z,4.73
2023-04-10T06:13:20.036Z,4.76
2023-04-10T06:15:46.914Z,4.86
2023-04-10T06:18:13.902Z,4.91
2023-04-10T06:20:41.014Z,5.10
2023-04-10T06:23:07.854Z,5.20
2023-04-10T06:25:34.871Z,5.32
2023-04-10T06:28:01.776Z,5.39
2023-04-10T06:30:28.544Z,5.53
2023-04-10T06:32:55.347Z,5.68
2023-04-10T06:35:22.291Z,5.62
2023-04-10T06:37:49.009Z,5.77
2023-04-10T06:40:16.397Z,5.89
2023-04-10T06:42:43.326Z,6.00
2023-04-10T06:45:10.789Z,6.16
2023-04-10T06:47:38.655Z,6.26
2023-04-10T06:50:06.533Z,6.39
2023-04-10T06:52:33.627Z,6.46
2023-04-10T06:55:00.589Z,6.60
2023-04-10T06:57:27.600Z,6.53
2023-04-10T06:59:55.087Z,6.67
2023-04-10T07:02:22.439Z,6.88
2023-04-10T07:04:49.450Z,6.97
2023-04-10T07:07:16.527Z,7.05
2023-04-10T07:09:44.380Z,7.25
2023-04-10T07:12:11.528Z,7.43
2023-04-10T07:14:39.064Z,7.57
2023-04-10T07:17:06.785Z,7.71
2023-04-10T07:19:33.747Z,7.96
2023-04-10T07:22:01.153Z,8.12
2023-04-10T07:24:31.367Z,8.32
2023-04-10T07:26:58.987Z,8.44
2023-04-10T07:29:26.375Z,8.64
2023-04-10T07:31:53.647Z,8.82
2023-04-10T07:34:20.664Z,8.99
2023-04-10T07:36:47.710Z,9.10
2023-04-10T07:39:14.963Z,9.27
2023-04-10T07:41:41.791Z,9.41
2023-04-10T07:44:08.662Z,9.66
2023-04-10T07:46:35.712Z,9.74
2023-04-10T07:49:02.994Z,9.69
2023-04-10T07:51:29.824Z,9.83
2023-04-10T07:53:56.581Z,9.92
2023-04-10T07:56:23.772Z,9.74
2023-04-10T07:58:51.773Z,9.90
2023-04-10T08:01:19.119Z,9.91
2023-04-10T08:03:47.869Z,10.03
2023-04-10T08:06:14.879Z,10.23
2023-04-10T08:08:42.395Z,10.49
2023-04-10T08:11:31.900Z,10.66
2023-04-10T08:14:03.991Z,10.77
2023-04-10T08:16:32.285Z,10.92
2023-04-10T08:18:59.857Z,11.14
2023-04-10T08:21:27.733Z,11.31
2023-04-10T08:23:55.785Z,11.51
2023-04-10T08:26:23.333Z,11.69
2023-04-10T08:28:52.254Z,11.77
2023-04-10T08:31:20.705Z,11.96
2023-04-10T08:33:48.198Z,12.08
2023-04-10T08:36:20.322Z,12.18
2023-04-10T08:38:48.049Z,12.25
2023-04-10T08:41:19.037Z,12.52
2023-04-10T08:43:46.674Z,12.66
2023-04-10T08:46:15.234Z,12.90
2023-04-10T08:49:03.224Z,13.00
2023-04-10T08:51:35.067Z,13.11
2023-04-10T08:54:09.762Z,13.26
2023-04-10T08:56:36.882Z,13.44
2023-04-10T08:59:03.849Z,13.49
2023-04-10T09:01:31.733Z,13.57
2023-04-10T09:03:59.475Z,13.69
2023-04-10T09:06:27.595Z,13.80
2023-04-10T09:08:54.553Z,13.84
2023-04-10T09:11:21.794Z,13.86
2023-04-10T09:13:48.864Z,14.00
2023-04-10T09:16:16.264Z,14.06
2023-04-10T09:18:46.327Z,14.36
2023-04-10T09:21:16.452Z,14.37
2023-04-10T09:23:45.264Z,14.39
2023-04-10T09:26:32.150Z,14.49
2023-04-10T09:29:08.444Z,14.58
2023-04-10T09:31:36.876Z,14.55
2023-04-10T09:34:23.693Z,14.68
2023-04-10T09:36:56.010Z,14.69
2023-04-10T09:39:30.783Z,14.84
2023-04-10T09:41:57.992Z,14.82
2023-04-10T09:44:36.556Z,14.96
2023-04-10T09:47:18.640Z,15.04
2023-04-10T09:50:16.877Z,15.05
2023-04-10T09:52:43.831Z,15.09
2023-04-10T09:55:17.271Z,15.18
2023-04-10T09:57:44.892Z,15.17
2023-04-10T10:00:14.608Z,15.16
2023-04-10T10:02:42.552Z,15.29
2023-04-10T10:05:10.669Z,15.32
2023-04-10T10:07:38.861Z,15.40
2023-04-10T10:10:11.271Z,15.62
2023-04-10T10:12:56.998Z,15.57
2023-04-10T10:15:50.093Z,15.57
2023-04-10T10:18:43.867Z,15.75
2023-04-10T10:21:15.186Z,15.98
2023-04-10T10:23:43.805Z,16.06
2023-04-10T10:26:12.225Z,16.07
2023-04-10T10:28:41.129Z,16.01
2023-04-10T10:31:08.433Z,16.05
2023-04-10T10:33:38.600Z,16.15
2023-04-10T10:36:06.589Z,16.27
2023-04-10T10:38:33.976Z,16.09
2023-04-10T10:41:19.403Z,16.21
2023-04-10T10:43:54.736Z,16.05
2023-04-10T10:46:30.243Z,16.20
2023-04-10T10:49:01.188Z,16.28
2023-04-10T10:51:47.237Z,16.34
2023-04-10T10:54:33.576Z,16.20
2023-04-10T10:57:01.487Z,16.34
2023-04-10T11:00:04.428Z,16.21
2023-04-10T11:02:32.882Z,16.32
2023-04-10T11:05:00.533Z,16.46
2023-04-10T11:07:59.275Z,16.61
2023-04-10T11:11:04.448Z,16.49
2023-04-10T11:13:39.417Z,16.68
2023-04-10T11:16:08.755Z,16.71
2023-04-10T11:19:13.435Z,16.66
2023-04-10T11:22:01.502Z,16.79
2023-04-10T11:24:30.065Z,16.88
2023-04-10T11:26:57.251Z,16.94
2023-04-10T11:29:36.851Z,17.05
2023-04-10T11:32:05.243Z,16.94
2023-04-10T11:34:33.776Z,16.90
2023-04-10T11:37:09.217Z,16.97
2023-04-10T11:39:36.325Z,17.10
2023-04-10T11:42:04.717Z,17.09
2023-04-10T11:44:35.724Z,17.15
2023-04-10T11:47:03.396Z,17.27
2023-04-10T11:49:32.141Z,17.39
2023-04-10T11:51:59.070Z,17.55
2023-04-10T11:54:27.396Z,17.61
2023-04-10T11:57:12.243Z,17.52
2023-04-10T11:59:39.187Z,17.55
2023-04-10T12:02:13.254Z,17.61
2023-04-10T12:04:40.867Z,17.65
2023-04-10T12:07:08.376Z,17.60
2023-04-10T12:09:35.433Z,17.71
2023-04-10T12:12:04.767Z,17.81
2023-04-10T12:14:36.718Z,17.88
2023-04-10T12:17:04.905Z,17.68
2023-04-10T12:19:33.666Z,17.69
2023-04-10T12:22:03.430Z,17.76
2023-04-10T12:24:51.278Z,17.72
2023-04-10T12:27:29.278Z,17.62
2023-04-10T12:29:57.706Z,17.63
2023-04-10T12:32:25.914Z,17.64
2023-04-10T12:34:59.292Z,17.61
2023-04-10T12:37:52.820Z,17.54
2023-04-10T12:40:20.930Z,17.67
2023-04-10T12:42:48.184Z,17.80
2023-04-10T12:45:15.800Z,17.90
2023-04-10T12:47:52.171Z,17.83
2023-04-10T12:50:21.381Z,17.78
2023-04-10T12:53:09.475Z,17.80
2023-04-10T12:55:38.569Z,17.64
2023-04-10T12:58:20.390Z,17.80
2023-04-10T13:00:48.350Z,17.82
2023-04-10T13:03:15.860Z,17.70
2023-04-10T13:05:43.504Z,17.63
2023-04-10T13:08:10.573Z,17.89
2023-04-10T13:10:38.660Z,17.70
2023-04-10T13:13:07.358Z,17.72
2023-04-10T13:15:35.654Z,17.78
2023-04-10T13:18:05.212Z,17.68
2023-04-10T13:20:34.541Z,17.64
2023-04-10T13:23:02.765Z,17.63
2023-04-10T13:25:34.323Z,17.55
2023-04-10T13:28:02.025Z,17.61
2023-04-10T13:30:30.309Z,17.61
2023-04-10T13:32:57.228Z,17.50
2023-04-10T13:35:24.387Z,17.38
2023-04-10T13:37:54.985Z,17.53
2023-04-10T13:40:21.898Z,17.57
2023-04-10T13:42:49.009Z,17.53
2023-04-10T13:45:16.800Z,17.63
2023-04-10T13:47:44.225Z,17.59
2023-04-10T13:50:11.580Z,17.61
2023-04-10T13:52:38.416Z,17.79
2023-04-10T13:55:06.744Z,17.68
2023-04-10T13:57:34.677Z,17.63
2023-04-10T14:00:02.472Z,17.67
2023-04-10T14:02:34.386Z,17.80
2023-04-10T14:05:01.326Z,17.84
2023-04-10T14:07:36.284Z,17.84
2023-04-10T14:10:04.846Z,17.80
2023-04-10T14:12:31.695Z,17.92
2023-04-10T14:15:10.771Z,18.03
2023-04-10T14:17:39.730Z,18.15
2023-04-10T14:20:07.663Z,18.26
2023-04-10T14:22:44.417Z,17.99
2023-04-10T14:25:16.255Z,18.04
2023-04-10T14:27:43.421Z,18.28
2023-04-10T14:30:14.834Z,18.17
2023-04-10T14:32:45.176Z,18.37
2023-04-10T14:35:12.751Z,18.45
2023-04-10T14:37:39.867Z,18.35
2023-04-10T14:40:08.837Z,18.32
2023-04-10T14:42:40.579Z,18.42
2023-04-10T14:45:08.332Z,18.27
2023-04-10T14:47:36.744Z,18.23
2023-04-10T14:50:04.472Z,18.19
2023-04-10T14:52:32.115Z,18.14
2023-04-10T14:55:03.144Z,18.19
2023-04-10T14:57:31.210Z,18.21
2023-04-10T15:00:00.733Z,18.21
2023-04-10T15:02:27.670Z,18.38
2023-04-10T15:04:54.662Z,18.40
2023-04-10T15:07:21.525Z,18.32
2023-04-10T15:09:48.762Z,18.24
2023-04-10T15:12:15.609Z,18.22
2023-04-10T15:14:42.464Z,18.24
2023-04-10T15:17:09.465Z,18.09
2023-04-10T15:19:36.589Z,18.04
2023-04-10T15:22:04.065Z,17.91
2023-04-10T15:24:37.007Z,17.95
2023-04-10T15:27:10.260Z,17.94
2023-04-10T15:29:43.007Z,18.22
2023-04-10T15:32:10.017Z,17.98
2023-04-10T15:34:36.906Z,18.08
2023-04-10T15:37:04.098Z,18.08
2023-04-10T15:39:33.787Z,18.25
2023-04-10T15:42:02.144Z,18.12
2023-04-10T15:44:29.017Z,18.11
2023-04-10T15:46:56.143Z,18.24
2023-04-10T15:49:33.819Z,18.12
2023-04-10T15:52:05.421Z,18.00
2023-04-10T15:54:34.114Z,18.12
2023-04-10T15:57:02.351Z,18.01
2023-04-10T15:59:29.922Z,17.90
2023-04-10T16:01:57.354Z,17.74
2023-04-10T16:04:24.394Z,17.65
2023-04-10T16:06:51.475Z,17.44
2023-04-10T16:09:26.237Z,17.24
2023-04-10T16:11:54.354Z,17.16
2023-04-10T16:14:21.393Z,17.08
2023-04-10T16:16:49.198Z,17.25
2023-04-10T16:19:18.806Z,17.31
2023-04-10T16:21:45.702Z,17.14
2023-04-10T16:24:13.307Z,17.04
2023-04-10T16:26:40.092Z,17.14
2023-04-10T16:29:09.722Z,17.10
2023-04-10T16:31:36.526Z,17.08
2023-04-10T16:34:04.886Z,17.15
2023-04-10T16:36:31.975Z,17.16
2023-04-10T16:38:59.530Z,17.16
2023-04-10T16:41:26.552Z,17.06
2023-04-10T16:43:54.191Z,16.99
2023-04-10T16:46:21.121Z,16.86
2023-04-10T16:48:47.837Z,16.88
2023-04-10T16:51:18.251Z,16.75
2023-04-10T16:53:45.521Z,16.67
2023-04-10T16:56:12.553Z,16.64
2023-04-10T16:58:41.697Z,16.66
2023-04-10T17:01:18.800Z,16.57
2023-04-10T17:03:48.484Z,16.48
2023-04-10T17:06:16.477Z,16.48
2023-04-10T17:08:44.677Z,16.40
2023-04-10T17:11:14.941Z,16.24
2023-04-10T17:13:42.324Z,16.20
2023-04-10T17:16:10.161Z,16.12
2023-04-10T17:18:37.742Z,16.06
2023-04-10T17:21:05.377Z,16.05
2023-04-10T17:23:32.301Z,15.98
2023-04-10T17:25:59.149Z,15.98
2023-04-10T17:28:26.461Z,15.97
2023-04-10T17:30:53.361Z,15.94
2023-04-10T17:33:21.997Z,15.85
2023-04-10T17:35:51.347Z,15.88
2023-04-10T17:38:18.371Z,15.75
2023-04-10T17:40:45.259Z,15.69
2023-04-10T17:43:12.165Z,15.73
2023-04-10T17:45:40.506Z,15.73
2023-04-10T17:48:07.851Z,15.54
2023-04-10T17:50:35.042Z,15.55
2023-04-10T17:53:04.719Z,15.57
2023-04-10T17:55:38.265Z,15.61
2023-04-10T17:58:05.144Z,15.49
2023-04-10T18:00:33.328Z,15.39
2023-04-10T18:03:01.599Z,15.40
2023-04-10T18:05:29.544Z,15.40
2023-04-10T18:07:56.824Z,15.30
2023-04-10T18:10:23.605Z,15.28
2023-04-10T18:12:50.778Z,15.30
2023-04-10T18:15:18.216Z,15.24
2023-04-10T18:17:45.047Z,15.23
2023-04-10T18:20:11.833Z,15.13
2023-04-10T18:22:39.825Z,15.17
2023-04-10T18:25:07.955Z,15.08
2023-04-10T18:27:36.271Z,15.07
2023-04-10T18:30:04.801Z,15.09
2023-04-10T18:32:31.616Z,15.05
2023-04-10T18:34:58.635Z,15.02
2023-04-10T18:37:25.482Z,15.02
2023-04-10T18:39:52.582Z,14.98
2023-04-10T18:42:19.632Z,14.89
2023-04-10T18:44:46.552Z,14.81
2023-04-10T18:47:14.040Z,14.75
2023-04-10T18:49:41.537Z,14.74
2023-04-10T18:52:08.537Z,14.73
2023-04-10T18:54:36.047Z,14.65
2023-04-10T18:57:02.804Z,14.61
2023-04-10T18:59:30.500Z,14.54
2023-04-10T19:01:57.401Z,14.49
2023-04-10T19:04:24.762Z,14.47
2023-04-10T19:06:51.778Z,14.45
2023-04-10T19:09:18.840Z,14.41
2023-04-10T19:11:46.066Z,14.40
2023-04-10T19:14:13.018Z,14.47
2023-04-10T19:16:40.273Z,14.42
2023-04-10T19:19:07.125Z,14.38
2023-04-10T19:21:35.204Z,14.35
2023-04-10T19:24:02.591Z,14.51
2023-04-10T19:26:29.435Z,14.52
2023-04-10T19:28:56.444Z,14.44
2023-04-10T19:31:24.176Z,14.37
2023-04-10T19:33:51.162Z,14.33
2023-04-10T19:36:19.035Z,14.27
2023-04-10T19:38:49.110Z,14.44
2023-04-10T19:41:16.883Z,14.39
2023-04-10T19:43:43.960Z,14.32
2023-04-10T19:46:21.006Z,14.30
2023-04-10T19:48:49.361Z,14.32
2023-04-10T19:51:16.211Z,14.43
2023-04-10T19:53:43.160Z,14.36
2023-04-10T19:56:10.046Z,14.34
2023-04-10T19:58:40.895Z,14.37
2023-04-10T20:01:12.290Z,14.43
2023-04-10T20:03:39.494Z,14.39
2023-04-10T20:06:10.563Z,14.28
2023-04-10T20:08:37.621Z,14.28
2023-04-10T20:11:07.623Z,14.22
2023-04-10T20:13:35.152Z,14.29
2023-04-10T20:16:02.249Z,14.30
2023-04-10T20:18:29.291Z,14.26
2023-04-10T20:20:56.100Z,14.26
2023-04-10T20:23:22.975Z,14.21
2023-04-10T20:25:49.940Z,14.25
2023-04-10T20:28:18.095Z,14.24
2023-04-10T20:30:45.074Z,14.21
2023-04-10T20:33:12.242Z,14.24
2023-04-10T20:35:39.379Z,14.21
2023-04-10T20:38:06.241Z,14.19
2023-04-10T20:40:33.130Z,14.19
2023-04-10T20:43:00.263Z,14.18
2023-04-10T20:45:27.090Z,14.14
2023-04-10T20:47:53.888Z,14.17
2023-04-10T20:50:20.709Z,14.13
2023-04-10T20:52:47.673Z,14.14
2023-04-10T20:55:14.563Z,14.17
2023-04-10T20:57:41.379Z,14.05
2023-04-10T21:00:09.372Z,14.03
2023-04-10T21:02:36.533Z,14.00
2023-04-10T21:05:03.894Z,14.04
2023-04-10T21:07:30.908Z,14.02
2023-04-10T21:09:57.886Z,14.03
2023-04-10T21:12:24.708Z,14.09
2023-04-10T21:14:51.573Z,14.01
2023-04-10T21:17:19.508Z,14.02
2023-04-10T21:19:46.328Z,13.98
2023-04-10T21:22:13.256Z,13.80
2023-04-10T21:24:40.607Z,13.88
2023-04-10T21:27:08.328Z,13.94
2023-04-10T21:29:35.019Z,13.90
2023-04-10T21:32:01.983Z,13.89
2023-04-10T21:34:29.117Z,13.85
2023-04-10T21:36:55.912Z,13.85
2023-04-10T21:39:22.710Z,13.83
2023-04-10T21:41:49.790Z,13.79
2023-04-10T21:44:16.752Z,13.73
2023-04-10T21:46:43.604Z,13.69
2023-04-10T21:49:10.844Z,13.70
2023-04-10T21:51:38.122Z,13.66
2023-04-10T21:54:05.260Z,13.74
2023-04-10T21:56:32.341Z,13.76
2023-04-10T21:58:59.287Z,13.77
2023-04-10T22:01:26.392Z,13.70
2023-04-10T22:03:54.530Z,13.68
2023-04-10T22:06:21.352Z,13.68
2023-04-10T22:08:48.578Z,13.67
2023-04-10T22:11:15.420Z,13.69
2023-04-10T22:13:42.193Z,13.67
2023-04-10T22:16:09.280Z,13.68
2023-04-10T22:18:36.398Z,13.68
2023-04-10T22:21:03.264Z,13.68
2023-04-10T22:23:30.114Z,13.70
2023-04-10T22:25:59.985Z,13.70
2023-04-10T22:28:28.363Z,13.67
2023-04-10T22:30:55.122Z,13.72
2023-04-10T22:33:22.487Z,13.68
2023-04-10T22:35:49.393Z,13.66
2023-04-10T22:38:16.249Z,13.66
2023-04-10T22:40:42.988Z,13.64
2023-04-10T22:43:11.202Z,13.60
2023-04-10T22:45:37.977Z,13.54
2023-04-10T22:48:05.046Z,13.54
2023-04-10T22:50:31.773Z,13.51
2023-04-10T22:52:58.496Z,13.45
2023-04-10T22:55:25.436Z,13.55
2023-04-10T22:57:52.504Z,13.46
2023-04-10T23:00:19.483Z,13.37
2023-04-10T23:02:46.488Z,13.44
2023-04-10T23:05:13.435Z,13.37
2023-04-10T23:07:40.707Z,13.32
2023-04-10T23:10:09.077Z,13.31
2023-04-10T23:12:36.193Z,13.27
2023-04-10T23:15:03.235Z,13.21
2023-04-10T23:17:30.179Z,13.21
2023-04-10T23:19:56.919Z,13.17
2023-04-10T23:22:23.694Z,13.09
2023-04-10T23:24:55.098Z,13.08
2023-04-10T23:27:22.106Z,12.94
2023-04-10T23:29:49.816Z,12.91
2023-04-10T23:32:17.326Z,12.68
2023-04-10T23:34:44.491Z,12.71
2023-04-10T23:37:11.262Z,12.80
2023-04-10T23:39:37.969Z,12.79
2023-04-10T23:42:04.968Z,12.78
2023-04-10T23:44:31.806Z,12.69
2023-04-10T23:46:58.787Z,12.74
2023-04-10T23:49:25.779Z,12.72
2023-04-10T23:51:52.813Z,12.52
2023-04-10T23:54:19.613Z,12.45
2023-04-10T23:56:46.375Z,12.29
2023-04-10T23:59:17.102Z,12.28
